KHEF

Manassas Regional / Harry P Davis Field Airport

Washington, Virginia, USA
METAR KHEF 182156Z 19007KT 10SM CLR 32/25 A2993 RMK AO2 SLP142 T03220250
Observed Flight Rules
Jun-18 @ 21:56 UTC (54 minutes ago) Visual Flight Rules
Wind Visibility Clouds
190° at 7 knots 10 miles
  • Clear skies
Temperatures Readings
Current 32°C / 90°F
Dewpoint 25°C / 77°F
Humidity 67%
Altimeter 29.93" Hg
Pressure 1014.2 hPa
Elevation 59
METAR KHEF 182156Z 19007KT 10SM CLR 32/25 A2993 RMK AO2 SLP142 T03220250
Observed Flight Rules
Jun-18 @ 21:56 UTC
(54 minutes ago)
VFR
Wind Visibility
190° at 7 knots 10 miles
Clouds
  • Clear skies
Temperature Dewpoint
32°C / 90°F 25°C / 77°F
Humidity Altimeter Pressure
67% 29.93" Hg 1014.2 hPa